Time;durP1;ratioP1;P1;durP2;ratioP2;P2;SDS_P1;SDS_P2;PMS_P1;PMS_P2;Temp;Humidity;BMP_temperature;BMP_pressure;BME280_temperature;BME280_humidity;BME280_pressure;Samples;Min_cycle;Max_cycle;Signal;HPM_P1;HPM_P2
2023/12/05 00:00:28;;;;;;;14.32;7.15;;;;;;;1.40;100.00;97640.22;5027812;28;20026;-77
2023/12/05 00:02:53;;;;;;;15.70;6.72;;;;;;;1.43;100.00;97652.38;5029002;28;20025;-77
2023/12/05 00:05:19;;;;;;;12.98;6.32;;;;;;;1.66;100.00;97692.44;5010103;28;20056;-77
2023/12/05 00:07:44;;;;;;;13.25;6.47;;;;;;;1.64;100.00;97684.59;5027570;28;20402;-77
2023/12/05 00:10:09;;;;;;;16.35;6.68;;;;;;;1.40;100.00;97652.72;5017316;28;20093;-77
2023/12/05 00:12:35;;;;;;;14.75;7.05;;;;;;;1.69;100.00;97689.41;5029471;28;20108;-77
2023/12/05 00:15:00;;;;;;;11.88;6.07;;;;;;;1.63;100.00;97669.59;5026843;28;20031;-77
2023/12/05 00:17:26;;;;;;;14.85;6.75;;;;;;;1.85;100.00;97675.16;5032729;28;20266;-77
2023/12/05 00:19:51;;;;;;;14.15;6.35;;;;;;;1.65;100.00;97659.59;5038189;28;20030;-77
2023/12/05 00:22:17;;;;;;;15.20;6.18;;;;;;;1.69;100.00;97668.06;5009490;28;20022;-76
2023/12/05 00:24:42;;;;;;;13.50;5.78;;;;;;;1.64;100.00;97654.44;5014327;28;20021;-77
2023/12/05 00:27:08;;;;;;;12.45;5.82;;;;;;;1.80;100.00;97665.00;5024365;28;20044;-77
2023/12/05 00:29:33;;;;;;;11.25;5.25;;;;;;;1.98;100.00;97662.88;5035341;28;20226;-77
2023/12/05 00:31:58;;;;;;;11.88;5.38;;;;;;;2.10;100.00;97655.31;5028364;28;20033;-76
2023/12/05 00:34:23;;;;;;;11.73;5.07;;;;;;;2.12;100.00;97636.44;5009349;28;20018;-77
2023/12/05 00:36:49;;;;;;;7.95;4.03;;;;;;;2.15;100.00;97647.59;5028012;28;20021;-77
2023/12/05 00:39:14;;;;;;;11.05;4.50;;;;;;;2.21;100.00;97645.25;5026278;28;20037;-77
2023/12/05 00:41:40;;;;;;;8.88;4.75;;;;;;;2.24;100.00;97651.03;5026810;28;20089;-77
2023/12/05 00:44:05;;;;;;;8.38;4.18;;;;;;;2.25;100.00;97644.69;5008841;28;20041;-77
2023/12/05 00:46:30;;;;;;;8.38;4.75;;;;;;;2.08;100.00;97614.63;5012423;28;20029;-77
2023/12/05 00:48:56;;;;;;;9.60;4.30;;;;;;;2.33;100.00;97654.47;5028460;28;20035;-77
2023/12/05 00:51:21;;;;;;;9.60;4.63;;;;;;;2.22;100.00;97633.53;5005536;28;20022;-77
2023/12/05 00:53:47;;;;;;;10.02;4.53;;;;;;;2.35;100.00;97668.47;5011980;28;20097;-77
2023/12/05 00:56:14;;;;;;;11.10;4.47;;;;;;;2.45;100.00;97663.72;5031852;23;20095;-78
2023/12/05 00:58:39;;;;;;;9.93;4.40;;;;;;;2.45;100.00;97662.88;5024551;28;20072;-77
2023/12/05 01:01:05;;;;;;;8.05;3.75;;;;;;;2.66;100.00;97665.69;5025724;28;20026;-78
2023/12/05 01:03:30;;;;;;;7.90;3.70;;;;;;;2.74;100.00;97670.94;5021882;28;20033;-76
2023/12/05 01:05:56;;;;;;;9.93;4.07;;;;;;;2.60;100.00;97656.56;5010984;28;20018;-77
2023/12/05 01:08:21;;;;;;;8.95;4.30;;;;;;;2.74;100.00;97678.97;5000665;28;20053;-75
2023/12/05 01:10:46;;;;;;;10.23;4.85;;;;;;;2.60;100.00;97667.25;5003465;28;20026;-78
2023/12/05 01:13:12;;;;;;;9.35;4.15;;;;;;;2.61;100.00;97673.41;5005127;28;20172;-77
2023/12/05 01:15:37;;;;;;;9.35;4.45;;;;;;;2.58;100.00;97663.09;5004658;28;20022;-77
2023/12/05 01:18:02;;;;;;;12.10;5.07;;;;;;;2.45;100.00;97663.72;5005840;28;20077;-78
2023/12/05 01:20:28;;;;;;;9.48;4.80;;;;;;;2.51;100.00;97679.00;5004841;28;20018;-78
2023/12/05 01:22:53;;;;;;;8.80;4.50;;;;;;;2.44;100.00;97682.56;5002546;28;20033;-76
2023/12/05 01:25:19;;;;;;;8.60;4.65;;;;;;;2.51;100.00;97686.19;5002291;28;20029;-78
2023/12/05 01:27:44;;;;;;;8.55;4.10;;;;;;;2.56;100.00;97679.28;5007728;28;20060;-77
2023/12/05 01:30:09;;;;;;;9.20;4.25;;;;;;;2.62;100.00;97680.44;5004822;28;20034;-77
2023/12/05 01:32:35;;;;;;;7.68;3.75;;;;;;;2.64;100.00;97684.56;5003921;28;20057;-78
2023/12/05 01:35:00;;;;;;;8.00;4.18;;;;;;;2.61;100.00;97674.25;5013408;28;20019;-78
2023/12/05 01:37:26;;;;;;;8.73;4.38;;;;;;;2.72;100.00;97683.66;5005738;28;20037;-77
2023/12/05 01:39:51;;;;;;;8.07;3.83;;;;;;;2.70;100.00;97682.19;5004323;28;20073;-78
2023/12/05 01:42:16;;;;;;;6.55;3.67;;;;;;;2.73;100.00;97690.66;5004261;28;20033;-77
2023/12/05 01:44:42;;;;;;;8.15;3.53;;;;;;;2.73;100.00;97680.00;5003913;28;20033;-77
2023/12/05 01:47:09;;;;;;;8.48;4.15;;;;;;;2.70;100.00;97683.03;5002362;28;20451;-78
2023/12/05 01:49:35;;;;;;;6.00;3.05;;;;;;;2.73;100.00;97687.19;4987116;28;20060;-78
2023/12/05 01:52:02;;;;;;;8.52;3.63;;;;;;;2.80;100.00;97680.94;5001376;28;20318;-78
2023/12/05 01:54:29;;;;;;;6.18;3.47;;;;;;;2.82;100.00;97686.91;5002817;28;20312;-77
2023/12/05 01:56:55;;;;;;;6.60;3.00;;;;;;;2.91;100.00;97681.47;5004407;28;20018;-77
2023/12/05 01:59:22;;;;;;;6.38;3.53;;;;;;;2.87;100.00;97672.19;5014241;28;20017;-77
2023/12/05 02:01:49;;;;;;;7.45;3.17;;;;;;;2.91;100.00;97670.78;5009244;28;20022;-77
2023/12/05 02:04:15;;;;;;;7.28;3.38;;;;;;;2.84;100.00;97679.53;5002259;28;20022;-78
2023/12/05 02:06:40;;;;;;;6.43;3.00;;;;;;;2.91;100.00;97668.13;5003688;28;20350;-78
2023/12/05 02:09:07;;;;;;;6.65;3.10;;;;;;;2.91;100.00;97679.66;5004031;28;20018;-77
2023/12/05 02:11:32;;;;;;;8.75;3.33;;;;;;;2.96;100.00;97682.63;5004346;28;20022;-77
2023/12/05 02:13:59;;;;;;;6.18;2.97;;;;;;;2.86;100.00;97660.66;5003809;28;20025;-77
2023/12/05 02:16:37;;;;;;;5.03;2.63;;;;;;;3.03;100.00;97677.34;5001537;28;20083;-78
2023/12/05 02:19:44;;;;;;;5.47;2.70;;;;;;;2.99;100.00;97678.75;5002486;28;20093;-78
2023/12/05 02:22:37;;;;;;;5.47;3.30;;;;;;;3.05;100.00;97678.00;5003529;28;20057;-77
2023/12/05 02:25:21;;;;;;;7.80;2.90;;;;;;;3.11;100.00;97673.75;5001727;28;20038;-77
2023/12/05 02:27:47;;;;;;;6.43;3.10;;;;;;;3.06;100.00;97669.78;5002840;28;20045;-78
2023/12/05 02:30:15;;;;;;;6.40;3.20;;;;;;;3.10;100.00;97678.28;5007662;28;20022;-77
2023/12/05 02:32:40;;;;;;;5.68;2.47;;;;;;;3.04;100.00;97687.88;4987080;28;20315;-77
2023/12/05 02:35:07;;;;;;;6.40;3.13;;;;;;;2.91;100.00;97673.47;5002278;28;20084;-77
2023/12/05 02:38:10;;;;;;;4.35;2.47;;;;;;;2.95;100.00;97682.78;5011888;28;20034;-76
2023/12/05 02:40:41;;;;;;;4.75;2.40;;;;;;;3.05;100.00;97680.69;5011614;28;20033;-75
2023/12/05 02:43:24;;;;;;;4.78;2.40;;;;;;;3.14;100.00;97690.25;5015194;28;20089;-76
2023/12/05 02:45:51;;;;;;;4.45;2.25;;;;;;;3.05;100.00;97697.53;5016032;28;20087;-77
2023/12/05 02:48:17;;;;;;;4.28;2.35;;;;;;;2.98;100.00;97687.75;5017538;28;20029;-77
2023/12/05 02:50:43;;;;;;;4.95;2.53;;;;;;;2.89;100.00;97687.00;5013620;28;20030;-77
2023/12/05 02:53:08;;;;;;;5.63;2.58;;;;;;;2.91;100.00;97693.00;5006750;28;20026;-75
2023/12/05 02:55:33;;;;;;;4.78;2.28;;;;;;;2.83;100.00;97695.78;5013911;28;20038;-75
2023/12/05 02:57:58;;;;;;;4.38;2.58;;;;;;;2.73;100.00;97701.34;5015133;28;20026;-77
2023/12/05 03:00:24;;;;;;;5.20;2.67;;;;;;;2.66;100.00;97695.06;5012657;28;20034;-76
2023/12/05 03:02:49;;;;;;;7.25;3.13;;;;;;;2.63;100.00;97704.25;5008290;28;20032;-76
2023/12/05 03:05:15;;;;;;;4.45;2.42;;;;;;;2.65;100.00;97709.44;5000926;28;20032;-77
2023/12/05 03:07:40;;;;;;;6.03;2.85;;;;;;;2.59;100.00;97696.78;5004178;28;20026;-78
2023/12/05 03:10:06;;;;;;;4.30;2.40;;;;;;;2.54;100.00;97707.19;5004000;28;20335;-77
2023/12/05 03:12:33;;;;;;;5.95;2.53;;;;;;;2.47;100.00;97695.56;5002185;28;20046;-77
2023/12/05 03:14:59;;;;;;;4.15;2.35;;;;;;;2.57;100.00;97714.84;5002734;28;20208;-78
2023/12/05 03:17:25;;;;;;;3.58;1.98;;;;;;;2.68;100.00;97717.09;5004256;28;20050;-78
2023/12/05 03:19:50;;;;;;;6.78;2.70;;;;;;;2.74;100.00;97708.34;5002129;28;20026;-78
2023/12/05 03:22:15;;;;;;;3.72;2.33;;;;;;;2.84;100.00;97727.63;4993215;28;20037;-77
2023/12/05 03:24:40;;;;;;;5.95;2.85;;;;;;;2.74;100.00;97713.69;4999614;28;20050;-77
2023/12/05 03:27:06;;;;;;;6.03;2.55;;;;;;;2.71;100.00;97707.88;5001822;28;20319;-77
2023/12/05 03:29:31;;;;;;;5.47;2.63;;;;;;;2.76;100.00;97713.53;5003289;28;20034;-77
2023/12/05 03:31:57;;;;;;;4.20;2.45;;;;;;;2.74;100.00;97710.19;5002703;28;20022;-77
2023/12/05 03:34:22;;;;;;;5.07;2.13;;;;;;;2.80;100.00;97710.31;5003906;28;20025;-77
2023/12/05 03:36:47;;;;;;;3.53;1.92;;;;;;;2.90;100.00;97702.03;4987089;28;20025;-77
2023/12/05 03:39:13;;;;;;;4.30;2.30;;;;;;;2.97;100.00;97699.47;4993461;28;20022;-76
2023/12/05 03:41:38;;;;;;;4.40;2.40;;;;;;;3.06;100.00;97703.69;4999573;28;20026;-76
2023/12/05 03:44:03;;;;;;;3.45;2.28;;;;;;;3.00;100.00;97689.22;5001817;28;20030;-77
2023/12/05 03:46:29;;;;;;;4.38;2.22;;;;;;;3.14;100.00;97705.47;5003177;28;20331;-77
2023/12/05 03:48:54;;;;;;;4.68;2.03;;;;;;;3.17;100.00;97705.94;5001741;28;20019;-77
2023/12/05 03:51:19;;;;;;;5.15;2.63;;;;;;;3.24;100.00;97706.84;5002900;28;20049;-77
2023/12/05 03:53:44;;;;;;;4.20;2.03;;;;;;;3.32;100.00;97713.94;5002869;28;20034;-77
2023/12/05 03:56:10;;;;;;;6.07;2.20;;;;;;;3.33;100.00;97698.72;5001914;28;20030;-77
2023/12/05 03:58:35;;;;;;;5.68;2.35;;;;;;;3.29;100.00;97693.75;5002272;28;20228;-77
2023/12/05 04:01:00;;;;;;;3.55;1.88;;;;;;;3.19;100.00;97684.34;4999159;28;20030;-76
2023/12/05 04:03:26;;;;;;;3.92;1.98;;;;;;;3.27;100.00;97693.13;4998759;28;20048;-76
2023/12/05 04:05:51;;;;;;;5.18;2.33;;;;;;;3.20;100.00;97694.88;4995566;28;20266;-76
2023/12/05 04:08:16;;;;;;;4.18;1.98;;;;;;;3.15;100.00;97696.44;5002951;28;20049;-76
2023/12/05 04:10:42;;;;;;;3.40;2.00;;;;;;;3.10;100.00;97697.00;5010276;28;20037;-76
2023/12/05 04:13:08;;;;;;;4.32;1.60;;;;;;;3.10;100.00;97696.16;5001911;28;20066;-76
2023/12/05 04:15:34;;;;;;;5.32;2.15;;;;;;;3.20;100.00;97694.88;4997751;28;20049;-75
2023/12/05 04:17:59;;;;;;;3.88;2.20;;;;;;;3.33;100.00;97688.03;5001684;28;20025;-74
2023/12/05 04:20:25;;;;;;;4.60;2.30;;;;;;;3.45;100.00;97700.75;4996116;28;20237;-72
2023/12/05 04:22:50;;;;;;;3.30;1.83;;;;;;;3.36;100.00;97691.19;4996567;28;20026;-73
2023/12/05 04:25:18;;;;;;;3.33;2.13;;;;;;;3.36;100.00;97693.03;5002546;28;20081;-73
2023/12/05 04:27:43;;;;;;;3.28;1.92;;;;;;;3.35;100.00;97705.56;5007058;28;20022;-73
2023/12/05 04:30:09;;;;;;;4.63;2.25;;;;;;;3.36;100.00;97703.72;5001208;28;20101;-74
2023/12/05 04:32:34;;;;;;;4.68;2.38;;;;;;;3.39;100.00;97708.72;5001294;28;20022;-73
2023/12/05 04:35:00;;;;;;;6.40;2.10;;;;;;;3.36;100.00;97698.38;5001809;28;20026;-76
2023/12/05 04:37:25;;;;;;;5.88;2.38;;;;;;;3.42;100.00;97698.47;4998621;28;20025;-78
2023/12/05 04:39:51;;;;;;;2.97;1.75;;;;;;;3.42;100.00;97709.16;5006422;28;20271;-78
2023/12/05 04:42:16;;;;;;;3.55;1.73;;;;;;;3.38;100.00;97715.03;5007890;28;20028;-78
2023/12/05 04:44:42;;;;;;;3.65;1.60;;;;;;;3.40;100.00;97711.19;5006869;28;20062;-79
2023/12/05 04:47:08;;;;;;;3.67;1.60;;;;;;;3.52;100.00;97714.22;5005471;28;20049;-75
2023/12/05 04:49:34;;;;;;;4.00;1.83;;;;;;;3.48;100.00;97708.44;5009694;28;20319;-75
2023/12/05 04:51:59;;;;;;;3.65;2.00;;;;;;;3.40;100.00;97715.69;5005631;28;20057;-76
2023/12/05 04:54:24;;;;;;;2.97;1.80;;;;;;;3.39;100.00;97703.34;5005900;28;20026;-75
2023/12/05 04:56:50;;;;;;;4.20;2.33;;;;;;;3.26;100.00;97706.69;5005978;28;20030;-75
2023/12/05 04:59:15;;;;;;;3.92;2.50;;;;;;;3.29;100.00;97715.16;5009037;28;20032;-77
2023/12/05 05:01:40;;;;;;;6.93;2.55;;;;;;;3.20;100.00;97704.75;5005622;28;20026;-75
2023/12/05 05:04:05;;;;;;;3.97;2.03;;;;;;;3.28;100.00;97696.63;5006182;28;20050;-77
2023/12/05 05:06:31;;;;;;;5.13;2.17;;;;;;;3.28;100.00;97688.63;5006007;28;20030;-78
2023/12/05 05:08:56;;;;;;;6.40;2.03;;;;;;;3.45;100.00;97699.94;5008349;28;20382;-75
2023/12/05 05:11:21;;;;;;;4.57;2.30;;;;;;;3.48;100.00;97697.75;5004630;28;20094;-76
2023/12/05 05:13:46;;;;;;;6.05;2.35;;;;;;;3.46;100.00;97688.25;5006020;28;20029;-75
2023/12/05 05:16:12;;;;;;;3.30;1.85;;;;;;;3.51;100.00;97700.03;5006154;28;20112;-76
2023/12/05 05:18:37;;;;;;;7.97;2.92;;;;;;;3.48;100.00;97703.09;4985545;28;20027;-77
2023/12/05 05:21:06;;;;;;;13.27;4.28;;;;;;;3.43;100.00;97707.31;4999711;28;20106;-77
2023/12/05 05:23:32;;;;;;;6.07;2.80;;;;;;;3.44;100.00;97707.13;5004838;28;20029;-76
2023/12/05 05:25:58;;;;;;;11.85;4.07;;;;;;;3.41;100.00;97706.69;5004162;28;20038;-77
2023/12/05 05:28:23;;;;;;;22.55;5.97;;;;;;;3.28;100.00;97693.97;5005883;28;20026;-77
2023/12/05 05:30:48;;;;;;;16.60;4.60;;;;;;;3.17;100.00;97705.09;5002886;28;20026;-76
2023/12/05 05:33:14;;;;;;;12.90;3.80;;;;;;;3.10;100.00;97713.03;5004610;28;20039;-76
2023/12/05 05:35:39;;;;;;;7.25;3.17;;;;;;;3.02;100.00;97715.78;5005516;28;20029;-77
2023/12/05 05:38:04;;;;;;;6.68;2.70;;;;;;;2.98;100.00;97717.16;5005155;28;20022;-76
2023/12/05 05:40:30;;;;;;;2.88;1.80;;;;;;;2.88;100.00;97722.72;5005601;28;20053;-76
2023/12/05 05:42:55;;;;;;;6.25;2.20;;;;;;;2.80;100.00;97725.47;5005824;28;20053;-76
2023/12/05 05:45:20;;;;;;;3.97;2.10;;;;;;;2.73;100.00;97724.56;5004044;28;20328;-75
2023/12/05 05:47:45;;;;;;;4.75;2.65;;;;;;;2.66;100.00;97713.75;5004905;28;20030;-76
2023/12/05 05:50:11;;;;;;;4.55;2.10;;;;;;;2.68;100.00;97727.78;4999579;28;20037;-78
2023/12/05 05:52:37;;;;;;;3.85;2.15;;;;;;;2.63;100.00;97714.13;5006429;28;20312;-78
2023/12/05 05:55:03;;;;;;;5.05;1.70;;;;;;;2.66;100.00;97726.28;5012626;28;20022;-78
2023/12/05 05:57:28;;;;;;;5.57;2.60;;;;;;;2.71;100.00;97731.91;5005156;28;20022;-77
2023/12/05 05:59:53;;;;;;;4.18;2.30;;;;;;;2.72;100.00;97723.72;5007268;28;20026;-77
2023/12/05 06:02:19;;;;;;;5.88;2.20;;;;;;;2.80;100.00;97730.81;5004916;28;20080;-74
2023/12/05 06:04:44;;;;;;;5.30;2.22;;;;;;;2.77;100.00;97734.69;5004370;28;20320;-76
2023/12/05 06:07:09;;;;;;;4.35;2.63;;;;;;;2.71;100.00;97730.06;5004844;28;20193;-76
2023/12/05 06:09:35;;;;;;;4.57;2.38;;;;;;;2.72;100.00;97738.91;5000533;28;20028;-76
2023/12/05 06:12:02;;;;;;;3.88;2.58;;;;;;;2.82;100.00;97732.31;5004835;28;20219;-78
2023/12/05 06:14:28;;;;;;;4.30;1.90;;;;;;;2.80;100.00;97730.81;5005076;28;20216;-75
2023/12/05 06:16:53;;;;;;;3.65;2.05;;;;;;;2.82;100.00;97729.63;5004897;28;20026;-77
2023/12/05 06:19:18;;;;;;;3.70;2.10;;;;;;;2.82;100.00;97744.84;5002957;28;20264;-77
2023/12/05 06:21:43;;;;;;;5.15;2.15;;;;;;;2.83;100.00;97731.31;5005056;28;20050;-77
2023/12/05 06:24:10;;;;;;;3.60;2.05;;;;;;;2.87;100.00;97736.28;5005545;28;20388;-77
2023/12/05 06:26:35;;;;;;;3.50;2.05;;;;;;;2.86;100.00;97732.78;5007122;28;20130;-77
2023/12/05 06:29:04;;;;;;;4.95;1.83;;;;;;;3.23;100.00;97742.63;5003269;28;20027;-77
2023/12/05 06:31:29;;;;;;;4.43;1.80;;;;;;;3.30;100.00;97734.69;5014343;28;20319;-77
2023/12/05 06:33:55;;;;;;;2.95;1.45;;;;;;;3.36;100.00;97731.28;5013271;28;20100;-77
2023/12/05 06:36:21;;;;;;;3.55;1.92;;;;;;;3.39;100.00;97738.94;5004725;28;20315;-76
2023/12/05 06:38:46;;;;;;;2.42;1.75;;;;;;;3.32;100.00;97726.50;5003153;28;20026;-76
2023/12/05 06:41:11;;;;;;;8.75;2.10;;;;;;;3.20;100.00;97726.94;5006698;28;20029;-75
2023/12/05 06:43:37;;;;;;;3.22;1.95;;;;;;;3.15;100.00;97732.00;5001479;28;20030;-75
2023/12/05 06:46:02;;;;;;;4.60;2.28;;;;;;;3.06;100.00;97743.78;5003193;28;20057;-75
2023/12/05 06:48:28;;;;;;;3.80;2.10;;;;;;;2.99;100.00;97741.03;5003336;28;20030;-79
2023/12/05 06:50:53;;;;;;;4.03;2.33;;;;;;;2.99;100.00;97751.72;4999818;28;20026;-77
2023/12/05 06:53:18;;;;;;;7.68;2.45;;;;;;;2.87;100.00;97763.00;5004135;28;20021;-78
2023/12/05 06:55:43;;;;;;;7.88;2.03;;;;;;;2.83;100.00;97752.69;5036916;23;20045;-78
2023/12/05 06:58:09;;;;;;;3.47;1.90;;;;;;;3.08;100.00;97760.47;5043687;28;20036;-77
2023/12/05 07:00:34;;;;;;;5.45;1.95;;;;;;;3.36;100.00;97767.91;5023381;28;20025;-81
2023/12/05 07:02:59;;;;;;;4.32;2.20;;;;;;;3.39;100.00;97764.84;5025878;28;20033;-75
2023/12/05 07:05:24;;;;;;;2.65;1.55;;;;;;;3.32;100.00;97747.88;5048087;28;20217;-75
2023/12/05 07:07:50;;;;;;;3.65;1.77;;;;;;;3.35;100.00;97759.03;5025608;28;20055;-75
2023/12/05 07:10:15;;;;;;;2.92;1.50;;;;;;;3.20;100.00;97753.69;5040555;28;20025;-75
2023/12/05 07:12:40;;;;;;;3.72;1.52;;;;;;;3.26;100.00;97760.97;5045294;28;20230;-78
2023/12/05 07:15:08;;;;;;;6.50;1.83;;;;;;;3.29;100.00;97768.59;5035672;28;20356;-77
2023/12/05 07:17:33;;;;;;;3.58;1.70;;;;;;;3.38;100.00;97777.41;5035188;28;20025;-76
2023/12/05 07:19:59;;;;;;;3.53;1.92;;;;;;;3.40;100.00;97785.22;5024590;28;20282;-78
2023/12/05 07:22:24;;;;;;;2.47;1.50;;;;;;;3.39;100.00;97764.84;5063742;28;20035;-76
2023/12/05 07:24:49;;;;;;;3.10;1.25;;;;;;;3.38;100.00;97761.34;5046351;28;20021;-77
2023/12/05 07:34:43;;;;;;;4.30;1.88;;;;;;;3.24;100.00;97760.31;5054124;28;20028;-82
2023/12/05 07:44:05;;;;;;;6.28;2.15;;;;;;;3.74;100.00;97804.22;5012546;28;20028;-83
2023/12/05 07:46:31;;;;;;;5.13;1.88;;;;;;;3.66;100.00;97796.28;4984523;28;20035;-80
2023/12/05 07:48:56;;;;;;;3.03;1.55;;;;;;;3.62;100.00;97784.31;5002518;28;20053;-77
2023/12/05 07:51:21;;;;;;;4.20;1.15;;;;;;;3.61;100.00;97788.00;5024131;28;20029;-79
2023/12/05 07:53:49;;;;;;;3.38;1.58;;;;;;;3.58;100.00;97777.66;5039635;28;20087;-77
2023/12/05 07:56:14;;;;;;;5.00;1.75;;;;;;;3.72;100.00;97792.91;5034363;28;20022;-77
2023/12/05 07:58:39;;;;;;;2.72;1.50;;;;;;;3.67;100.00;97786.44;5009881;28;20337;-77
2023/12/05 08:01:05;;;;;;;3.67;1.58;;;;;;;3.65;100.00;97783.13;5025720;28;20021;-78
2023/12/05 08:03:33;;;;;;;2.58;1.45;;;;;;;3.76;100.00;97795.19;5043027;28;20017;-77
2023/12/05 08:05:58;;;;;;;3.17;1.25;;;;;;;3.87;100.00;97800.06;5030937;28;20071;-76
2023/12/05 08:08:24;;;;;;;3.22;1.35;;;;;;;4.02;100.00;97803.56;5052231;28;20028;-79
2023/12/05 08:10:49;;;;;;;2.70;1.48;;;;;;;4.05;100.00;97800.53;5042103;28;20306;-77
2023/12/05 08:13:14;;;;;;;3.97;1.50;;;;;;;3.94;100.00;97755.50;5032595;28;20017;-79
2023/12/05 08:15:40;;;;;;;3.72;1.58;;;;;;;4.25;100.00;97797.28;5031985;28;20021;-79
2023/12/05 08:18:05;;;;;;;2.97;1.35;;;;;;;4.18;100.00;97803.38;5032025;28;20103;-78
2023/12/05 08:20:30;;;;;;;4.80;1.38;;;;;;;4.19;100.00;97785.44;5042307;28;20097;-80
2023/12/05 08:23:14;;;;;;;1.98;1.00;;;;;;;4.25;100.00;97797.28;5068528;28;20047;-80
2023/12/05 08:25:40;;;;;;;5.93;1.60;;;;;;;4.39;100.00;97807.09;5026991;28;20109;-79
2023/12/05 08:28:05;;;;;;;4.32;1.48;;;;;;;4.45;100.00;97790.28;5028131;28;20060;-77
2023/12/05 08:30:30;;;;;;;5.38;2.08;;;;;;;4.59;100.00;97781.38;5012277;28;20033;-76
2023/12/05 08:32:57;;;;;;;3.65;1.40;;;;;;;4.91;100.00;97799.81;5026364;28;20060;-73
2023/12/05 08:35:23;;;;;;;3.25;1.60;;;;;;;5.12;100.00;97785.56;5032727;28;20103;-74
2023/12/05 08:37:48;;;;;;;3.05;1.30;;;;;;;5.47;100.00;97808.72;5027246;28;20064;-74
2023/12/05 08:40:13;;;;;;;4.82;1.60;;;;;;;5.93;100.00;97792.13;5044977;28;20029;-74
2023/12/05 08:42:42;;;;;;;2.95;1.40;;;;;;;6.42;100.00;97784.06;5064352;28;20028;-73
2023/12/05 08:45:10;;;;;;;5.43;1.08;;;;;;;6.68;100.00;97802.97;5033942;28;20028;-75
2023/12/05 08:47:35;;;;;;;5.05;1.58;;;;;;;6.65;100.00;97806.03;5045516;28;20194;-74
2023/12/05 08:50:01;;;;;;;6.57;1.50;;;;;;;6.10;100.00;97803.41;5038730;28;20048;-75
2023/12/05 08:52:26;;;;;;;4.60;1.60;;;;;;;6.01;100.00;97799.19;5038259;28;20326;-74
2023/12/05 08:54:51;;;;;;;3.08;1.55;;;;;;;6.04;100.00;97806.03;5050274;28;20028;-72
2023/12/05 08:57:16;;;;;;;4.35;1.20;;;;;;;5.82;100.00;97802.59;5054792;28;20261;-72
2023/12/05 08:59:42;;;;;;;5.55;1.20;;;;;;;5.84;100.00;97817.47;5045715;28;20037;-72
2023/12/05 09:02:08;;;;;;;8.18;1.70;;;;;;;5.82;100.00;97811.47;5044388;28;20029;-74
2023/12/05 09:04:36;;;;;;;3.65;1.50;;;;;;;5.60;100.00;97823.28;5045513;28;20049;-74
2023/12/05 09:07:01;;;;;;;3.83;1.13;;;;;;;5.39;100.00;97790.09;5041336;28;20040;-74
2023/12/05 09:09:27;;;;;;;4.78;1.17;;;;;;;5.67;100.00;97818.78;5040026;28;20056;-74
2023/12/05 09:11:52;;;;;;;4.03;1.67;;;;;;;5.87;100.00;97789.41;5037197;28;20056;-74
2023/12/05 09:14:18;;;;;;;4.45;1.85;;;;;;;6.57;100.00;97800.84;5045645;28;20071;-73
2023/12/05 09:16:43;;;;;;;3.72;1.52;;;;;;;7.14;100.00;97812.97;5041817;28;20259;-73
2023/12/05 09:19:08;;;;;;;3.60;1.67;;;;;;;7.18;100.00;97795.38;5028034;28;20025;-73
2023/12/05 09:21:35;;;;;;;4.65;1.40;;;;;;;7.16;100.00;97805.53;5045166;28;20368;-74
2023/12/05 09:24:00;;;;;;;5.70;1.70;;;;;;;8.78;100.00;97805.75;5031393;28;20024;-73
2023/12/05 09:26:25;;;;;;;4.63;1.40;;;;;;;9.42;100.00;97791.19;5045608;28;20033;-74
2023/12/05 09:28:50;;;;;;;7.25;1.73;;;;;;;9.19;100.00;97799.88;5029441;28;20041;-76
2023/12/05 09:31:16;;;;;;;2.90;1.35;;;;;;;8.84;100.00;97818.38;5039929;28;20048;-76
2023/12/05 09:33:41;;;;;;;2.30;0.93;;;;;;;9.92;100.00;97808.38;5046786;28;20087;-76
2023/12/05 09:36:07;;;;;;;2.97;1.15;;;;;;;11.82;100.00;97802.41;5061996;28;20060;-76
2023/12/05 09:38:32;;;;;;;2.83;1.10;;;;;;;12.48;100.00;97805.75;5045659;28;20029;-75
2023/12/05 09:40:58;;;;;;;4.00;1.15;;;;;;;13.94;96.63;97812.44;5064584;28;20062;-75
2023/12/05 09:43:25;;;;;;;6.20;1.23;;;;;;;13.25;90.59;97814.53;5063117;28;20059;-73
2023/12/05 09:46:00;;;;;;;2.70;1.00;;;;;;;10.09;100.00;97817.56;5044364;28;20025;-76
2023/12/05 09:48:28;;;;;;;3.53;1.20;;;;;;;8.69;100.00;97820.53;5043005;28;20021;-76
2023/12/05 09:50:54;;;;;;;2.92;0.95;;;;;;;10.82;100.00;97815.84;5031768;28;20025;-75
2023/12/05 09:53:21;;;;;;;4.25;1.30;;;;;;;13.32;100.00;97807.91;5044311;28;20014;-75
2023/12/05 09:55:46;;;;;;;3.63;1.15;;;;;;;15.29;86.55;97800.19;5042140;28;20350;-74
2023/12/05 09:58:14;;;;;;;2.65;1.00;;;;;;;16.03;78.27;97807.59;5046399;28;20025;-74
2023/12/05 10:00:39;;;;;;;5.30;1.15;;;;;;;16.14;73.51;97806.59;5043060;28;20026;-74
2023/12/05 10:03:08;;;;;;;3.40;1.10;;;;;;;18.60;67.80;97795.94;5037204;28;20105;-74
2023/12/05 10:05:34;;;;;;;2.28;1.10;;;;;;;18.24;63.89;97793.34;5036312;28;20309;-73
2023/12/05 10:08:01;;;;;;;1.63;0.85;;;;;;;18.22;64.13;97792.00;5038410;28;20059;-74
2023/12/05 10:10:30;;;;;;;4.50;1.10;;;;;;;17.22;65.61;97796.94;5030614;28;20022;-74
2023/12/05 10:12:56;;;;;;;1.75;0.80;;;;;;;15.56;67.30;97801.00;5044511;28;20097;-75
2023/12/05 10:15:22;;;;;;;4.15;0.75;;;;;;;15.99;66.97;97790.97;5020759;28;20029;-74
2023/12/05 10:17:48;;;;;;;1.83;0.80;;;;;;;15.55;71.14;97793.88;5024397;28;20021;-74
2023/12/05 10:20:14;;;;;;;2.95;0.68;;;;;;;15.51;68.88;97791.91;5016794;28;20132;-75
2023/12/05 10:22:40;;;;;;;2.55;1.00;;;;;;;13.72;74.16;97785.19;5048503;28;20021;-75
2023/12/05 10:25:07;;;;;;;2.13;0.98;;;;;;;13.30;78.22;97798.34;5026065;28;20021;-72
2023/12/05 10:27:32;;;;;;;3.35;0.80;;;;;;;13.59;81.84;97799.09;5037447;28;20021;-73
2023/12/05 10:29:57;;;;;;;2.80;0.80;;;;;;;15.11;77.13;97777.66;5029927;28;20051;-72
2023/12/05 10:32:29;;;;;;;3.35;0.68;;;;;;;13.78;76.42;97788.78;5043509;28;20039;-72
2023/12/05 10:35:01;;;;;;;3.40;0.73;;;;;;;11.79;100.00;97807.50;5025110;28;20028;-71
2023/12/05 10:37:51;;;;;;;3.63;0.70;;;;;;;10.67;100.00;97803.56;5052886;28;20021;-83
2023/12/05 10:40:16;;;;;;;2.33;0.95;;;;;;;10.02;100.00;97781.66;5039448;28;20033;-81
2023/12/05 10:42:42;;;;;;;2.22;0.43;;;;;;;8.83;100.00;97799.69;5023483;28;20032;-85
2023/12/05 10:45:08;;;;;;;3.85;1.10;;;;;;;8.50;100.00;97773.75;5029303;28;20029;-82
2023/12/05 10:47:33;;;;;;;3.30;0.60;;;;;;;8.80;100.00;97792.88;5032455;28;20029;-83
2023/12/05 10:49:59;;;;;;;3.67;0.73;;;;;;;8.65;100.00;97782.41;5014415;28;20025;-82
2023/12/05 10:52:24;;;;;;;3.28;0.50;;;;;;;8.37;100.00;97763.03;5028017;28;20021;-81
2023/12/05 10:55:08;;;;;;;2.55;0.50;;;;;;;8.41;100.00;97777.72;5029061;28;20018;-84
2023/12/05 10:57:34;;;;;;;1.48;0.50;;;;;;;8.56;100.00;97775.59;5027689;28;20040;-83
2023/12/05 10:59:59;;;;;;;2.05;0.85;;;;;;;9.34;100.00;97780.66;5037865;28;20029;-79
2023/12/05 11:02:24;;;;;;;1.25;0.50;;;;;;;9.53;100.00;97772.59;5027973;28;20024;-73
2023/12/05 11:04:51;;;;;;;0.95;0.40;;;;;;;9.40;100.00;97774.38;5056466;28;20048;-73
2023/12/05 11:07:17;;;;;;;1.02;0.45;;;;;;;9.58;100.00;97757.38;5045805;28;20100;-74
2023/12/05 11:09:42;;;;;;;1.48;0.73;;;;;;;9.57;100.00;97781.94;5038320;28;20036;-73
2023/12/05 11:12:09;;;;;;;2.92;0.47;;;;;;;9.42;100.00;97780.38;5041592;28;20028;-73
2023/12/05 11:14:40;;;;;;;0.93;0.40;;;;;;;9.08;100.00;97784.38;5042941;28;20026;-73
2023/12/05 11:17:12;;;;;;;2.35;0.85;;;;;;;8.84;100.00;97790.59;5053303;28;20096;-73
2023/12/05 11:20:06;;;;;;;2.20;0.57;;;;;;;8.65;100.00;97773.50;5015616;28;20037;-73
2023/12/05 11:22:31;;;;;;;2.05;0.38;;;;;;;8.51;100.00;97786.19;5043166;28;20356;-74
2023/12/05 11:25:34;;;;;;;1.15;0.57;;;;;;;8.27;100.00;97774.25;5024657;28;20021;-73
2023/12/05 11:28:40;;;;;;;3.65;0.60;;;;;;;9.19;100.00;97782.84;5015267;28;20354;-73
2023/12/05 11:31:15;;;;;;;1.38;0.52;;;;;;;9.55;100.00;97778.63;5018557;28;20319;-76
2023/12/05 11:33:46;;;;;;;5.63;0.70;;;;;;;9.69;100.00;97771.19;5048743;28;20331;-74
2023/12/05 11:36:40;;;;;;;1.13;0.63;;;;;;;9.70;100.00;97772.88;5048877;28;20028;-76
2023/12/05 11:39:06;;;;;;;1.38;0.47;;;;;;;9.72;100.00;97760.81;5019779;28;20100;-74
2023/12/05 11:41:31;;;;;;;2.85;0.45;;;;;;;10.10;100.00;97774.09;5062667;28;20330;-74
2023/12/05 11:44:12;;;;;;;1.98;0.70;;;;;;;10.62;100.00;97770.97;5031447;28;20496;-73